createdAt,value
2019-03-30T00:00:50.104Z,60.28
2019-03-30T00:01:50.106Z,60.17
2019-03-30T00:02:50.080Z,60.68
2019-03-30T00:03:50.070Z,60.17
2019-03-30T00:04:50.058Z,60.68
2019-03-30T00:05:50.147Z,60.68
2019-03-30T00:06:50.037Z,60.28
2019-03-30T00:07:50.027Z,60.38
2019-03-30T00:08:50.020Z,60.68
2019-03-30T00:09:50.003Z,60.58
2019-03-30T00:10:49.995Z,60.61
2019-03-30T00:11:50.238Z,60.68
2019-03-30T00:12:49.973Z,60.68
2019-03-30T00:13:49.965Z,60.38
2019-03-30T00:14:49.949Z,60.58
2019-03-30T00:15:49.940Z,60.58
2019-03-30T00:16:49.927Z,60.58
2019-03-30T00:17:50.083Z,60.38
2019-03-30T00:18:49.912Z,60.48
2019-03-30T00:19:49.895Z,60.78
2019-03-30T00:20:49.889Z,60.68
2019-03-30T00:21:49.876Z,60.48
2019-03-30T00:22:49.864Z,60.97
2019-03-30T00:23:49.947Z,60.88
2019-03-30T00:24:49.844Z,60.58
2019-03-30T00:25:49.833Z,60.68
2019-03-30T00:26:49.819Z,60.68
2019-03-30T00:27:49.810Z,60.58
2019-03-30T00:28:49.799Z,60.78
2019-03-30T00:29:50.101Z,60.78
2019-03-30T00:30:49.897Z,60.58
2019-03-30T00:31:49.772Z,60.68
2019-03-30T00:32:49.757Z,60.78
2019-03-30T00:33:49.744Z,60.78
2019-03-30T00:34:49.733Z,60.58
2019-03-30T00:35:50.017Z,60.58
2019-03-30T00:36:49.712Z,60.68
2019-03-30T00:37:49.702Z,61.08
2019-03-30T00:38:49.695Z,60.97
2019-03-30T00:39:49.682Z,60.97
2019-03-30T00:40:49.774Z,61.08
2019-03-30T00:41:49.754Z,61.27
2019-03-30T00:42:49.657Z,60.97
2019-03-30T00:43:49.639Z,60.97
2019-03-30T00:44:49.627Z,60.97
2019-03-30T00:45:49.615Z,60.97
2019-03-30T00:46:49.605Z,61.18
2019-03-30T00:47:49.687Z,61.10
2019-03-30T00:48:49.793Z,60.91
2019-03-30T00:49:50.269Z,61.18
2019-03-30T00:50:49.560Z,61.27
2019-03-30T00:51:49.550Z,61.21
2019-03-30T00:52:49.547Z,61.41
2019-03-30T00:53:49.758Z,61.21
2019-03-30T00:54:49.519Z,61.30
2019-03-30T00:55:49.508Z,61.10
2019-03-30T00:56:49.498Z,61.21
2019-03-30T00:57:49.489Z,61.21
2019-03-30T00:58:49.475Z,61.30
2019-03-30T00:59:49.562Z,61.27
2019-03-30T01:00:49.455Z,61.10
2019-03-30T01:01:49.443Z,61.47
2019-03-30T01:02:49.432Z,61.27
2019-03-30T01:03:49.426Z,61.10
2019-03-30T01:04:49.412Z,61.38
2019-03-30T01:05:49.490Z,61.08
2019-03-30T01:06:49.388Z,61.08
2019-03-30T01:07:49.379Z,61.51
2019-03-30T01:08:49.368Z,61.60
2019-03-30T01:09:49.355Z,61.71
2019-03-30T01:10:49.345Z,61.21
2019-03-30T01:11:49.634Z,61.60
2019-03-30T01:12:49.323Z,61.41
2019-03-30T01:13:49.316Z,61.41
2019-03-30T01:14:49.302Z,61.51
2019-03-30T01:15:49.688Z,61.51
2019-03-30T01:16:49.281Z,61.80
2019-03-30T01:17:49.402Z,61.60
2019-03-30T01:18:49.261Z,61.87
2019-03-30T01:20:01.938Z,61.80
2019-03-30T01:20:50.237Z,61.80
2019-03-30T01:21:49.227Z,61.80
2019-03-30T01:22:49.216Z,61.71
2019-03-30T01:23:49.699Z,61.51
2019-03-30T01:24:49.195Z,61.60
2019-03-30T01:25:49.191Z,61.80
2019-03-30T01:26:49.178Z,61.57
2019-03-30T01:27:49.162Z,61.60
2019-03-30T01:28:49.154Z,61.80
2019-03-30T01:29:49.374Z,61.51
2019-03-30T01:30:49.129Z,61.68
2019-03-30T01:31:49.119Z,61.71
2019-03-30T01:32:49.108Z,61.57
2019-03-30T01:33:49.097Z,61.51
2019-03-30T01:34:49.086Z,61.30
2019-03-30T01:35:49.368Z,61.71
2019-03-30T01:36:49.065Z,61.51
2019-03-30T01:37:49.061Z,61.51
2019-03-30T01:38:49.044Z,61.71
2019-03-30T01:39:49.040Z,61.68
2019-03-30T01:40:49.023Z,61.80
2019-03-30T01:41:49.101Z,61.71
2019-03-30T01:42:49.001Z,61.71
2019-03-30T01:43:48.988Z,61.71
2019-03-30T01:44:48.977Z,61.60
2019-03-30T01:45:48.967Z,61.80
2019-03-30T01:46:48.969Z,61.80
2019-03-30T01:47:49.109Z,61.60
2019-03-30T01:48:48.933Z,61.80
2019-03-30T01:49:48.925Z,61.90
2019-03-30T01:50:48.913Z,61.80
2019-03-30T01:51:48.905Z,61.80
2019-03-30T01:52:48.891Z,61.80
2019-03-30T01:53:49.164Z,61.71
2019-03-30T01:54:48.869Z,61.71
2019-03-30T01:55:48.858Z,62.10
2019-03-30T01:56:48.858Z,61.90
2019-03-30T01:57:48.839Z,61.80
2019-03-30T01:58:48.827Z,62.10
2019-03-30T01:59:48.912Z,62.01
2019-03-30T02:00:48.866Z,62.01
2019-03-30T02:01:48.796Z,61.80
2019-03-30T02:02:48.786Z,61.80
2019-03-30T02:03:48.773Z,61.90
2019-03-30T02:04:48.766Z,61.90
2019-03-30T02:05:49.019Z,62.20
2019-03-30T02:06:48.747Z,61.90
2019-03-30T02:07:48.732Z,62.20
2019-03-30T02:08:48.720Z,62.10
2019-03-30T02:09:48.708Z,62.10
2019-03-30T02:10:48.698Z,62.10
2019-03-30T02:11:48.887Z,62.10
2019-03-30T02:12:48.676Z,62.10
2019-03-30T02:13:48.669Z,62.10
2019-03-30T02:14:48.655Z,62.10
2019-03-30T02:15:48.643Z,62.10
2019-03-30T02:16:48.634Z,62.10
2019-03-30T02:17:48.755Z,62.10
2019-03-30T02:18:48.611Z,61.90
2019-03-30T02:19:48.599Z,62.01
2019-03-30T02:20:48.590Z,61.90
2019-03-30T02:21:48.579Z,61.71
2019-03-30T02:22:48.573Z,61.90
2019-03-30T02:23:48.717Z,61.71
2019-03-30T02:24:48.546Z,62.01
2019-03-30T02:25:48.535Z,62.10
2019-03-30T02:26:48.533Z,61.80
2019-03-30T02:27:48.517Z,61.90
2019-03-30T02:28:48.503Z,61.80
2019-03-30T02:29:48.655Z,62.10
2019-03-30T02:30:48.516Z,62.20
2019-03-30T02:31:48.474Z,62.01
2019-03-30T02:32:48.461Z,62.10
2019-03-30T02:33:48.467Z,62.10
2019-03-30T02:34:49.274Z,62.30
2019-03-30T02:35:48.543Z,62.10
2019-03-30T02:36:48.418Z,62.10
2019-03-30T02:37:48.410Z,62.10
2019-03-30T02:38:48.399Z,62.01
2019-03-30T02:39:48.390Z,62.01
2019-03-30T02:40:48.376Z,62.01
2019-03-30T02:41:48.457Z,61.90
2019-03-30T02:42:48.359Z,61.90
2019-03-30T02:43:48.342Z,62.01
2019-03-30T02:44:48.331Z,62.20
2019-03-30T02:45:48.322Z,62.04
2019-03-30T02:46:48.315Z,62.20
2019-03-30T02:47:48.465Z,62.30
2019-03-30T02:48:48.288Z,62.01
2019-03-30T02:49:48.280Z,62.23
2019-03-30T02:50:50.540Z,62.10
2019-03-30T02:51:48.254Z,62.13
2019-03-30T02:52:48.244Z,61.90
2019-03-30T02:53:48.385Z,61.80
2019-03-30T02:54:48.226Z,61.90
2019-03-30T02:55:48.214Z,61.90
2019-03-30T02:56:48.208Z,62.01
2019-03-30T02:57:48.191Z,62.10
2019-03-30T02:58:48.184Z,62.30
2019-03-30T02:59:48.264Z,62.23
2019-03-30T03:00:48.238Z,62.20
2019-03-30T03:01:48.147Z,62.30
2019-03-30T03:02:48.136Z,62.30
2019-03-30T03:03:48.127Z,62.20
2019-03-30T03:04:48.124Z,62.23
2019-03-30T03:05:48.419Z,62.20
2019-03-30T03:06:48.094Z,62.40
2019-03-30T03:07:48.082Z,62.50
2019-03-30T03:08:48.094Z,62.50
2019-03-30T03:09:48.063Z,62.50
2019-03-30T03:10:48.050Z,62.40
2019-03-30T03:11:48.136Z,62.50
2019-03-30T03:12:48.030Z,62.30
2019-03-30T03:13:48.017Z,62.23
2019-03-30T03:14:48.007Z,62.30
2019-03-30T03:15:48.021Z,62.20
2019-03-30T03:16:47.985Z,62.34
2019-03-30T03:17:48.066Z,62.30
2019-03-30T03:18:47.971Z,62.20
2019-03-30T03:19:47.963Z,62.34
2019-03-30T03:21:06.123Z,62.40
2019-03-30T03:21:48.929Z,62.50
2019-03-30T03:22:47.927Z,62.20
2019-03-30T03:23:48.183Z,62.10
2019-03-30T03:24:47.899Z,62.10
2019-03-30T03:25:47.890Z,62.01
2019-03-30T03:26:47.876Z,61.90
2019-03-30T03:27:47.866Z,61.83
2019-03-30T03:28:47.853Z,62.10
2019-03-30T03:29:47.949Z,61.90
2019-03-30T03:30:47.831Z,61.73
2019-03-30T03:31:47.830Z,61.90
2019-03-30T03:32:47.811Z,62.13
2019-03-30T03:33:47.801Z,62.01
2019-03-30T03:34:47.796Z,61.90
2019-03-30T03:35:47.869Z,62.01
2019-03-30T03:36:47.775Z,61.90
2019-03-30T03:37:47.772Z,62.10
2019-03-30T03:38:47.749Z,62.13
2019-03-30T03:39:47.734Z,62.10
2019-03-30T03:40:47.738Z,62.10
2019-03-30T03:41:48.021Z,62.10
2019-03-30T03:42:47.703Z,61.90
2019-03-30T03:43:47.696Z,62.13
2019-03-30T03:44:47.680Z,62.10
2019-03-30T03:45:47.673Z,62.10
2019-03-30T03:46:47.662Z,62.01
2019-03-30T03:47:47.774Z,62.01
2019-03-30T03:48:47.639Z,61.90
2019-03-30T03:49:47.632Z,61.90
2019-03-30T03:50:47.648Z,62.10
2019-03-30T03:51:47.610Z,62.01
2019-03-30T03:52:47.597Z,62.13
2019-03-30T03:53:47.858Z,61.93
2019-03-30T03:54:47.573Z,62.10
2019-03-30T03:55:47.572Z,62.01
2019-03-30T03:56:47.568Z,62.01
2019-03-30T03:57:47.543Z,62.10
2019-03-30T03:58:47.535Z,62.10
2019-03-30T03:59:47.682Z,61.80
2019-03-30T04:00:47.605Z,62.10
2019-03-30T04:01:47.500Z,62.10
2019-03-30T04:02:47.496Z,62.10
2019-03-30T04:03:47.482Z,61.71
2019-03-30T04:04:47.913Z,62.04
2019-03-30T04:05:47.548Z,61.83
2019-03-30T04:06:47.445Z,61.83
2019-03-30T04:07:47.433Z,62.04
2019-03-30T04:08:47.429Z,62.13
2019-03-30T04:09:47.414Z,62.13
2019-03-30T04:10:47.408Z,62.13
2019-03-30T04:11:47.489Z,62.13
2019-03-30T04:12:47.381Z,61.83
2019-03-30T04:13:47.374Z,62.01
2019-03-30T04:14:47.367Z,61.93
2019-03-30T04:15:47.350Z,62.10
2019-03-30T04:16:47.340Z,61.93
2019-03-30T04:17:47.494Z,61.90
2019-03-30T04:18:48.313Z,61.93
2019-03-30T04:19:47.307Z,61.80
2019-03-30T04:20:47.296Z,62.04
2019-03-30T04:21:47.285Z,62.04
2019-03-30T04:22:47.279Z,62.04
2019-03-30T04:23:47.363Z,61.93
2019-03-30T04:24:47.254Z,61.83
2019-03-30T04:25:47.244Z,62.10
2019-03-30T04:26:47.232Z,62.10
2019-03-30T04:27:47.221Z,62.13
2019-03-30T04:28:47.208Z,61.90
2019-03-30T04:29:47.293Z,61.93
2019-03-30T04:30:47.194Z,62.13
2019-03-30T04:31:47.178Z,62.10
2019-03-30T04:32:47.168Z,62.13
2019-03-30T04:33:47.154Z,61.83
2019-03-30T04:34:47.145Z,62.10
2019-03-30T04:35:47.411Z,62.13
2019-03-30T04:36:47.124Z,62.01
2019-03-30T04:37:47.121Z,62.13
2019-03-30T04:38:47.102Z,62.01
2019-03-30T04:39:47.089Z,62.23
2019-03-30T04:40:47.079Z,62.13
2019-03-30T04:41:47.236Z,61.90
2019-03-30T04:42:47.060Z,62.10
2019-03-30T04:43:47.045Z,62.01
2019-03-30T04:44:47.037Z,62.10
2019-03-30T04:45:47.031Z,62.13
2019-03-30T04:46:47.015Z,61.83
2019-03-30T04:47:47.095Z,62.13
2019-03-30T04:48:47.000Z,62.23
2019-03-30T04:49:46.981Z,62.20
2019-03-30T04:50:46.972Z,62.13
2019-03-30T04:51:57.506Z,62.13
2019-03-30T04:52:48.043Z,62.10
2019-03-30T04:53:46.940Z,61.93
2019-03-30T04:54:46.926Z,61.93
2019-03-30T04:55:46.922Z,61.93
2019-03-30T04:56:46.907Z,61.73
2019-03-30T04:57:49.726Z,61.63
2019-03-30T04:58:47.044Z,61.80
2019-03-30T04:59:46.874Z,61.83
2019-03-30T05:00:46.862Z,61.80
2019-03-30T05:01:46.850Z,62.10
2019-03-30T05:02:46.848Z,61.93
2019-03-30T05:03:46.830Z,61.71
2019-03-30T05:04:47.086Z,61.73
2019-03-30T05:05:46.809Z,61.71
2019-03-30T05:06:46.801Z,61.80
2019-03-30T05:07:46.786Z,61.80
2019-03-30T05:08:46.779Z,61.71
2019-03-30T05:09:46.774Z,61.80
2019-03-30T05:10:46.848Z,61.73
2019-03-30T05:11:46.742Z,61.80
2019-03-30T05:12:46.739Z,61.80
2019-03-30T05:13:46.722Z,61.80
2019-03-30T05:14:46.718Z,61.80
2019-03-30T05:15:46.700Z,61.71
2019-03-30T05:16:46.785Z,61.90
2019-03-30T05:17:48.069Z,61.41
2019-03-30T05:18:46.667Z,61.41
2019-03-30T05:19:46.661Z,61.41
2019-03-30T05:20:46.652Z,61.60
2019-03-30T05:21:46.634Z,61.41
2019-03-30T05:22:46.887Z,61.51
2019-03-30T05:23:46.612Z,61.71
2019-03-30T05:24:46.605Z,61.51
2019-03-30T05:25:46.590Z,61.71
2019-03-30T05:26:46.583Z,61.71
2019-03-30T05:27:46.571Z,61.71
2019-03-30T05:28:46.656Z,61.60
2019-03-30T05:29:46.572Z,61.71
2019-03-30T05:30:46.539Z,61.80
2019-03-30T05:31:46.526Z,61.71
2019-03-30T05:32:46.527Z,61.80
2019-03-30T05:33:46.515Z,61.60
2019-03-30T05:34:46.586Z,61.71
2019-03-30T05:35:46.484Z,61.71
2019-03-30T05:36:46.474Z,61.41
2019-03-30T05:37:46.463Z,61.10
2019-03-30T05:38:46.452Z,61.21
2019-03-30T05:39:46.443Z,61.21
2019-03-30T05:40:46.701Z,61.51
2019-03-30T05:41:46.423Z,61.21
2019-03-30T05:42:46.409Z,61.30
2019-03-30T05:43:46.397Z,61.21
2019-03-30T05:44:46.391Z,61.30
2019-03-30T05:45:46.386Z,61.30
2019-03-30T05:46:46.479Z,61.21
2019-03-30T05:47:46.353Z,61.41
2019-03-30T05:48:46.345Z,61.41
2019-03-30T05:49:46.331Z,61.30
2019-03-30T05:50:46.325Z,61.21
2019-03-30T05:51:46.311Z,61.21
2019-03-30T05:52:46.417Z,61.30
2019-03-30T05:53:46.295Z,61.41
2019-03-30T05:54:46.277Z,61.41
2019-03-30T05:55:46.266Z,61.21
2019-03-30T05:56:46.259Z,61.00
2019-03-30T05:57:46.250Z,60.91
2019-03-30T05:58:46.424Z,61.00
2019-03-30T05:59:46.223Z,60.91
2019-03-30T06:00:46.211Z,61.00
2019-03-30T06:01:46.203Z,61.00
2019-03-30T06:02:46.195Z,61.10
2019-03-30T06:03:46.183Z,61.30
2019-03-30T06:04:46.634Z,61.00
2019-03-30T06:05:46.159Z,61.00
2019-03-30T06:06:46.150Z,61.10
2019-03-30T06:07:46.137Z,60.91
2019-03-30T06:08:46.126Z,60.88
2019-03-30T06:09:46.115Z,60.97
2019-03-30T06:10:46.221Z,61.18
2019-03-30T06:11:46.093Z,61.10
2019-03-30T06:12:46.082Z,61.10
2019-03-30T06:13:46.072Z,60.97
2019-03-30T06:14:46.065Z,60.71
2019-03-30T06:15:46.053Z,60.97
2019-03-30T06:16:46.134Z,60.78
2019-03-30T06:17:46.029Z,60.80
2019-03-30T06:18:46.020Z,60.68
2019-03-30T06:19:46.020Z,60.80
2019-03-30T06:20:45.997Z,60.61
2019-03-30T06:21:45.986Z,60.68
2019-03-30T06:22:46.139Z,60.68
2019-03-30T06:23:48.471Z,60.80
2019-03-30T06:24:45.953Z,60.71
2019-03-30T06:25:45.940Z,60.88
2019-03-30T06:26:45.934Z,60.58
2019-03-30T06:27:45.921Z,60.78
2019-03-30T06:28:46.009Z,60.68
2019-03-30T06:29:45.897Z,60.68
2019-03-30T06:30:45.889Z,60.68
2019-03-30T06:31:46.922Z,60.58
2019-03-30T06:32:45.870Z,60.88
2019-03-30T06:33:45.856Z,60.97
2019-03-30T06:34:46.442Z,60.97
2019-03-30T06:35:45.834Z,60.97
2019-03-30T06:36:45.822Z,60.38
2019-03-30T06:37:45.813Z,60.68
2019-03-30T06:38:45.806Z,60.68
2019-03-30T06:39:45.793Z,60.48
2019-03-30T06:40:45.913Z,60.58
2019-03-30T06:41:45.769Z,60.68
2019-03-30T06:42:45.757Z,60.48
2019-03-30T06:43:45.793Z,60.58
2019-03-30T06:44:45.752Z,60.38
2019-03-30T06:45:45.724Z,60.28
2019-03-30T06:46:45.817Z,60.68
2019-03-30T06:47:45.711Z,60.68
2019-03-30T06:48:45.695Z,60.88
2019-03-30T06:49:45.715Z,60.68
2019-03-30T06:50:45.680Z,60.68
2019-03-30T06:51:45.660Z,60.48
2019-03-30T06:52:56.780Z,60.68
2019-03-30T06:53:46.650Z,60.97
2019-03-30T06:54:45.633Z,60.48
2019-03-30T06:55:45.618Z,60.68
2019-03-30T06:56:45.629Z,60.88
2019-03-30T06:57:45.655Z,60.58
2019-03-30T06:58:45.750Z,60.48
2019-03-30T06:59:45.573Z,60.80
2019-03-30T07:00:45.563Z,60.61
2019-03-30T07:01:45.559Z,60.48
2019-03-30T07:02:45.544Z,60.97
2019-03-30T07:03:45.531Z,60.58
2019-03-30T07:04:45.829Z,60.68
2019-03-30T07:05:45.517Z,60.58
2019-03-30T07:06:45.498Z,60.68
2019-03-30T07:07:45.491Z,60.58
2019-03-30T07:08:45.483Z,60.48
2019-03-30T07:09:45.500Z,60.38
2019-03-30T07:10:45.556Z,60.48
2019-03-30T07:11:45.444Z,60.68
2019-03-30T07:12:45.431Z,60.68
2019-03-30T07:13:45.420Z,60.38
2019-03-30T07:14:45.415Z,60.58
2019-03-30T07:15:45.398Z,60.68
2019-03-30T07:16:45.478Z,60.38
2019-03-30T07:17:45.382Z,60.28
2019-03-30T07:18:45.367Z,60.17
2019-03-30T07:19:45.357Z,60.28
2019-03-30T07:20:45.343Z,60.48
2019-03-30T07:21:45.332Z,60.48
2019-03-30T07:22:45.490Z,60.38
2019-03-30T07:23:45.310Z,60.38
2019-03-30T07:24:45.299Z,60.38
2019-03-30T07:25:45.292Z,60.08
2019-03-30T07:26:45.299Z,60.58
2019-03-30T07:27:45.267Z,60.58
2019-03-30T07:28:47.089Z,60.61
2019-03-30T07:29:45.255Z,59.98
2019-03-30T07:30:45.242Z,60.58
2019-03-30T07:31:45.224Z,60.58
2019-03-30T07:32:45.213Z,60.38
2019-03-30T07:33:45.205Z,60.08
2019-03-30T07:34:45.282Z,60.11
2019-03-30T07:35:45.185Z,60.50
2019-03-30T07:36:45.171Z,60.58
2019-03-30T07:37:45.161Z,60.08
2019-03-30T07:38:45.148Z,60.00
2019-03-30T07:39:45.138Z,60.17
2019-03-30T07:40:45.224Z,60.17
2019-03-30T07:41:45.118Z,60.21
2019-03-30T07:42:45.111Z,60.41
2019-03-30T07:43:45.096Z,60.31
2019-03-30T07:44:45.083Z,60.41
2019-03-30T07:45:45.072Z,60.11
2019-03-30T07:46:45.220Z,60.41
2019-03-30T07:47:45.054Z,60.41
2019-03-30T07:48:45.040Z,60.31
2019-03-30T07:49:45.032Z,60.11
2019-03-30T07:50:45.019Z,60.11
2019-03-30T07:51:45.010Z,60.00
2019-03-30T07:52:45.181Z,59.88
2019-03-30T07:53:45.198Z,60.11
2019-03-30T07:54:44.975Z,59.70
2019-03-30T07:55:44.965Z,60.11
2019-03-30T07:56:44.953Z,59.61
2019-03-30T07:57:44.945Z,60.00
2019-03-30T07:58:45.036Z,60.00
2019-03-30T07:59:44.921Z,60.11
2019-03-30T08:00:44.913Z,60.11
2019-03-30T08:01:44.899Z,60.11
2019-03-30T08:02:44.894Z,59.70
2019-03-30T08:03:44.881Z,59.91
2019-03-30T08:04:44.962Z,60.11
2019-03-30T08:05:44.856Z,60.11
2019-03-30T08:06:44.845Z,60.00
2019-03-30T08:07:44.838Z,60.11
2019-03-30T08:08:44.831Z,59.70
2019-03-30T08:09:44.813Z,60.11
2019-03-30T08:10:45.080Z,60.11
2019-03-30T08:11:44.794Z,60.11
2019-03-30T08:12:44.780Z,59.91
2019-03-30T08:13:44.772Z,59.91
2019-03-30T08:14:45.198Z,59.91
2019-03-30T08:15:44.748Z,60.00
2019-03-30T08:16:44.835Z,59.61
2019-03-30T08:17:44.726Z,59.70
2019-03-30T08:18:44.719Z,59.91
2019-03-30T08:19:44.705Z,60.11
2019-03-30T08:20:44.693Z,60.11
2019-03-30T08:21:44.739Z,60.11
2019-03-30T08:22:44.782Z,60.11
2019-03-30T08:23:44.671Z,60.00
2019-03-30T08:24:44.671Z,60.11
2019-03-30T08:25:44.649Z,60.00
2019-03-30T08:26:44.647Z,60.11
2019-03-30T08:27:44.617Z,60.11
2019-03-30T08:28:44.924Z,60.11
2019-03-30T08:29:44.596Z,60.11
2019-03-30T08:30:44.586Z,59.81
2019-03-30T08:31:44.576Z,59.70
2019-03-30T08:32:44.575Z,60.11
2019-03-30T08:33:44.554Z,59.81
2019-03-30T08:34:44.656Z,60.11
2019-03-30T08:35:44.531Z,60.00
2019-03-30T08:36:44.524Z,60.00
2019-03-30T08:37:44.510Z,60.11
2019-03-30T08:38:44.513Z,60.11
2019-03-30T08:39:44.500Z,59.70
2019-03-30T08:40:44.581Z,59.91
2019-03-30T08:41:44.471Z,60.00
2019-03-30T08:42:44.456Z,59.81
2019-03-30T08:43:44.446Z,59.81
2019-03-30T08:44:44.432Z,60.31
2019-03-30T08:45:44.426Z,60.14
2019-03-30T08:46:44.688Z,59.81
2019-03-30T08:47:44.401Z,60.24
2019-03-30T08:48:44.388Z,60.31
2019-03-30T08:49:44.428Z,60.21
2019-03-30T08:50:44.367Z,60.00
2019-03-30T08:51:44.360Z,60.03
2019-03-30T08:52:44.454Z,60.00
2019-03-30T08:53:54.470Z,60.21
2019-03-30T08:54:45.339Z,60.21
2019-03-30T08:55:44.312Z,60.00
2019-03-30T08:56:44.303Z,60.21
2019-03-30T08:57:44.314Z,60.31
2019-03-30T08:58:44.380Z,60.33
2019-03-30T08:59:44.270Z,59.94
2019-03-30T09:00:44.279Z,60.03
2019-03-30T09:01:44.256Z,60.11
2019-03-30T09:02:44.239Z,60.31
2019-03-30T09:03:44.227Z,60.41
2019-03-30T09:04:44.388Z,59.91
2019-03-30T09:05:44.205Z,60.00
2019-03-30T09:06:44.194Z,59.81
2019-03-30T09:07:44.184Z,60.00
2019-03-30T09:08:44.179Z,59.70
2019-03-30T09:09:44.163Z,60.00
2019-03-30T09:10:44.248Z,60.00
2019-03-30T09:11:44.149Z,59.91
2019-03-30T09:12:44.128Z,60.11
2019-03-30T09:13:44.124Z,60.11
2019-03-30T09:14:44.108Z,59.81
2019-03-30T09:15:44.096Z,59.91
2019-03-30T09:16:44.198Z,60.11
2019-03-30T09:17:44.104Z,60.00
2019-03-30T09:18:44.064Z,59.70
2019-03-30T09:19:44.053Z,60.11
2019-03-30T09:20:44.043Z,59.91
2019-03-30T09:21:44.031Z,60.31
2019-03-30T09:22:44.189Z,59.78
2019-03-30T09:23:44.009Z,59.78
2019-03-30T09:24:43.999Z,59.18
2019-03-30T09:25:43.989Z,60.08
2019-03-30T09:26:43.979Z,59.38
2019-03-30T09:27:43.965Z,59.08
2019-03-30T09:28:44.133Z,59.38
2019-03-30T09:29:43.945Z,59.28
2019-03-30T09:30:43.933Z,59.38
2019-03-30T09:31:43.923Z,59.08
2019-03-30T09:32:45.261Z,59.18
2019-03-30T09:33:43.901Z,59.08
2019-03-30T09:34:44.032Z,59.28
2019-03-30T09:35:43.881Z,59.38
2019-03-30T09:36:43.972Z,59.28
2019-03-30T09:37:43.859Z,59.28
2019-03-30T09:38:43.847Z,59.38
2019-03-30T09:39:43.835Z,59.18
2019-03-30T09:40:43.940Z,59.38
2019-03-30T09:41:44.795Z,59.75
2019-03-30T09:42:43.809Z,59.28
2019-03-30T09:43:43.799Z,59.45
2019-03-30T09:44:43.801Z,59.48
2019-03-30T09:45:43.773Z,59.45
2019-03-30T09:46:44.018Z,59.55
2019-03-30T09:47:43.749Z,59.45
2019-03-30T09:48:43.814Z,58.95
2019-03-30T09:49:43.728Z,59.35
2019-03-30T09:50:43.728Z,58.65
2019-03-30T09:51:43.707Z,58.95
2019-03-30T09:52:43.804Z,59.25
2019-03-30T09:53:43.686Z,59.15
2019-03-30T09:54:43.675Z,59.05
2019-03-30T09:55:43.678Z,58.92
2019-03-30T09:56:43.654Z,58.92
2019-03-30T09:57:43.641Z,58.92
2019-03-30T09:58:58.438Z,58.92
2019-03-30T09:59:43.617Z,58.72
2019-03-30T10:00:44.645Z,58.72
2019-03-30T10:01:43.682Z,58.83
2019-03-30T10:02:43.610Z,58.72
2019-03-30T10:03:43.577Z,58.62
2019-03-30T10:04:43.839Z,59.02
2019-03-30T10:05:43.560Z,58.92
2019-03-30T10:06:43.553Z,58.53
2019-03-30T10:07:43.536Z,58.83
2019-03-30T10:08:43.521Z,58.89
2019-03-30T10:09:43.517Z,58.72
2019-03-30T10:10:43.671Z,58.62
2019-03-30T10:11:43.489Z,58.92
2019-03-30T10:12:43.477Z,58.72
2019-03-30T10:13:43.469Z,59.02
2019-03-30T10:14:43.456Z,58.62
2019-03-30T10:15:43.474Z,59.22
2019-03-30T10:16:43.538Z,59.12
2019-03-30T10:17:43.427Z,59.02
2019-03-30T10:18:43.411Z,59.12
2019-03-30T10:19:43.407Z,59.12
2019-03-30T10:20:43.393Z,58.83
2019-03-30T10:21:43.380Z,59.35
2019-03-30T10:22:43.561Z,59.55
2019-03-30T10:23:43.359Z,59.55
2019-03-30T10:24:43.444Z,59.05
2019-03-30T10:25:43.340Z,59.05
2019-03-30T10:26:43.358Z,59.05
2019-03-30T10:27:43.317Z,58.92
2019-03-30T10:28:46.860Z,59.15
2019-03-30T10:29:43.310Z,58.95
2019-03-30T10:30:43.469Z,59.05
2019-03-30T10:31:43.275Z,59.45
2019-03-30T10:32:43.277Z,59.52
2019-03-30T10:33:43.249Z,58.72
2019-03-30T10:34:43.350Z,59.32
2019-03-30T10:35:43.229Z,59.02
2019-03-30T10:36:43.248Z,59.12
2019-03-30T10:37:43.210Z,59.12
2019-03-30T10:38:43.199Z,59.42
2019-03-30T10:39:43.206Z,59.12
2019-03-30T10:40:43.271Z,59.02
2019-03-30T10:41:43.163Z,58.53
2019-03-30T10:42:43.167Z,58.42
2019-03-30T10:43:43.141Z,58.70
2019-03-30T10:44:43.134Z,58.70
2019-03-30T10:45:43.119Z,58.62
2019-03-30T10:46:43.344Z,58.83
2019-03-30T10:47:43.098Z,59.02
2019-03-30T10:48:43.085Z,58.53
2019-03-30T10:49:43.082Z,58.89
2019-03-30T10:50:43.072Z,59.02
2019-03-30T10:51:43.061Z,59.02
2019-03-30T10:52:43.144Z,58.40
2019-03-30T10:53:43.033Z,58.20
2019-03-30T10:54:52.557Z,58.50
2019-03-30T10:55:44.013Z,58.40
2019-03-30T10:56:43.001Z,58.59
2019-03-30T10:57:42.989Z,58.40
2019-03-30T10:58:43.089Z,58.80
2019-03-30T10:59:42.973Z,58.00
2019-03-30T11:00:42.968Z,58.10
2019-03-30T11:01:42.950Z,58.10
2019-03-30T11:02:42.935Z,58.29
2019-03-30T11:03:43.022Z,58.87
2019-03-30T11:04:43.099Z,58.10
2019-03-30T11:05:42.903Z,58.80
2019-03-30T11:06:42.895Z,58.67
2019-03-30T11:07:42.892Z,58.17
2019-03-30T11:08:42.870Z,58.10
2019-03-30T11:09:42.858Z,58.20
2019-03-30T11:10:42.949Z,58.57
2019-03-30T11:11:42.840Z,58.57
2019-03-30T11:12:42.828Z,57.77
2019-03-30T11:13:42.822Z,57.77
2019-03-30T11:14:42.805Z,58.67
2019-03-30T11:15:42.794Z,58.80
2019-03-30T11:16:42.954Z,58.17
2019-03-30T11:17:42.782Z,58.17
2019-03-30T11:18:42.764Z,58.29
2019-03-30T11:19:42.751Z,58.59
2019-03-30T11:20:42.741Z,58.87
2019-03-30T11:21:42.730Z,58.17
2019-03-30T11:22:42.882Z,58.27
2019-03-30T11:23:42.711Z,58.29
2019-03-30T11:24:42.696Z,58.20
2019-03-30T11:25:42.686Z,58.10
2019-03-30T11:26:42.679Z,58.29
2019-03-30T11:27:42.666Z,58.00
2019-03-30T11:28:42.752Z,58.40
2019-03-30T11:29:42.643Z,58.59
2019-03-30T11:30:42.635Z,58.89
2019-03-30T11:31:42.620Z,58.40
2019-03-30T11:32:42.609Z,58.53
2019-03-30T11:33:42.604Z,58.92
2019-03-30T11:34:42.692Z,59.12
2019-03-30T11:35:42.577Z,59.12
2019-03-30T11:36:42.566Z,59.32
2019-03-30T11:37:42.560Z,58.83
2019-03-30T11:38:42.548Z,58.62
2019-03-30T11:39:42.558Z,59.52
2019-03-30T11:40:42.778Z,59.12
2019-03-30T11:41:42.514Z,59.42
2019-03-30T11:42:42.506Z,58.92
2019-03-30T11:43:42.494Z,59.22
2019-03-30T11:44:42.494Z,59.15
2019-03-30T11:45:42.473Z,58.83
2019-03-30T11:46:42.761Z,59.12
2019-03-30T11:47:42.458Z,59.42
2019-03-30T11:48:43.212Z,59.02
2019-03-30T11:49:42.432Z,59.12
2019-03-30T11:50:42.433Z,59.25
2019-03-30T11:51:42.402Z,59.32
2019-03-30T11:52:42.488Z,59.15
2019-03-30T11:53:42.379Z,58.62
2019-03-30T11:54:42.370Z,59.22
2019-03-30T11:55:42.371Z,58.42
2019-03-30T11:56:42.348Z,58.72
2019-03-30T11:57:42.343Z,58.42
2019-03-30T11:58:42.478Z,58.83
2019-03-30T11:59:42.332Z,59.05
2019-03-30T12:00:42.310Z,58.92
2019-03-30T12:01:42.293Z,58.92
2019-03-30T12:02:42.284Z,59.02
2019-03-30T12:03:42.298Z,59.02
2019-03-30T12:04:42.571Z,58.92
2019-03-30T12:05:42.252Z,59.02
2019-03-30T12:06:42.240Z,58.62
2019-03-30T12:07:42.229Z,59.02
2019-03-30T12:08:42.219Z,59.02
2019-03-30T12:09:42.207Z,58.42
2019-03-30T12:10:43.113Z,58.72
2019-03-30T12:11:42.185Z,58.55
2019-03-30T12:12:42.175Z,59.12
2019-03-30T12:13:42.164Z,58.95
2019-03-30T12:14:42.155Z,58.92
2019-03-30T12:15:42.143Z,58.92
2019-03-30T12:16:42.237Z,58.65
2019-03-30T12:17:42.120Z,58.62
2019-03-30T12:18:42.112Z,58.45
2019-03-30T12:19:42.101Z,58.75
2019-03-30T12:20:42.094Z,59.15
2019-03-30T12:21:42.716Z,59.05
2019-03-30T12:22:42.392Z,59.25
2019-03-30T12:23:42.851Z,59.25
2019-03-30T12:24:42.070Z,59.05
2019-03-30T12:25:42.038Z,58.95
2019-03-30T12:26:42.026Z,58.75
2019-03-30T12:27:42.035Z,59.08
2019-03-30T12:28:42.297Z,59.35
2019-03-30T12:29:44.531Z,59.55
2019-03-30T12:30:42.010Z,59.55
2019-03-30T12:31:41.975Z,59.45
2019-03-30T12:32:41.959Z,59.25
2019-03-30T12:33:41.949Z,59.25
2019-03-30T12:34:42.075Z,58.98
2019-03-30T12:35:41.928Z,59.18
2019-03-30T12:36:41.918Z,59.75
2019-03-30T12:37:41.907Z,59.18
2019-03-30T12:38:41.895Z,59.38
2019-03-30T12:39:41.885Z,59.48
2019-03-30T12:40:42.113Z,59.48
2019-03-30T12:41:41.868Z,59.18
2019-03-30T12:42:41.855Z,59.78
2019-03-30T12:43:41.848Z,59.18
2019-03-30T12:44:41.831Z,59.28
2019-03-30T12:45:41.819Z,59.18
2019-03-30T12:46:41.957Z,59.38
2019-03-30T12:47:41.803Z,59.18
2019-03-30T12:48:41.788Z,59.38
2019-03-30T12:49:45.007Z,59.38
2019-03-30T12:50:41.765Z,59.38
2019-03-30T12:51:41.762Z,59.38
2019-03-30T12:52:41.856Z,59.78